createdAt,value
2023-04-20T00:00:39.852Z,7.62
2023-04-20T00:05:41.453Z,7.59
2023-04-20T00:10:45.176Z,7.55
2023-04-20T00:15:46.772Z,7.52
2023-04-20T00:20:48.528Z,7.48
2023-04-20T00:25:51.707Z,7.47
2023-04-20T00:30:53.338Z,7.53
2023-04-20T00:35:56.427Z,7.58
2023-04-20T00:40:58.750Z,7.52
2023-04-20T00:46:00.622Z,7.43
2023-04-20T00:51:02.427Z,7.51
2023-04-20T00:56:04.981Z,7.51
2023-04-20T01:01:08.883Z,7.44
2023-04-20T01:06:11.046Z,7.43
2023-04-20T01:11:12.872Z,7.31
2023-04-20T01:16:14.686Z,7.39
2023-04-20T01:21:21.866Z,7.50
2023-04-20T01:26:25.253Z,7.48
2023-04-20T01:31:27.311Z,7.54
2023-04-20T01:36:28.956Z,7.51
2023-04-20T01:41:30.557Z,7.52
2023-04-20T01:46:32.271Z,7.52
2023-04-20T01:51:35.465Z,7.48
2023-04-20T01:56:37.134Z,7.44
2023-04-20T02:01:38.951Z,7.44
2023-04-20T02:06:41.096Z,7.31
2023-04-20T02:11:44.339Z,7.37
2023-04-20T02:16:46.806Z,7.38
2023-04-20T02:21:48.643Z,7.34
2023-04-20T02:26:50.576Z,7.29
2023-04-20T02:31:52.513Z,7.23
2023-04-20T02:36:54.399Z,7.16
2023-04-20T02:41:56.859Z,7.12
2023-04-20T02:46:58.782Z,7.06
2023-04-20T02:52:01.238Z,7.08
2023-04-20T02:57:03.698Z,7.03
2023-04-20T03:02:05.739Z,7.01
2023-04-20T03:07:07.894Z,7.03
2023-04-20T03:12:11.670Z,6.96
2023-04-20T03:17:28.262Z,6.88
2023-04-20T03:22:30.306Z,6.78
2023-04-20T03:27:35.319Z,6.76
2023-04-20T03:32:45.305Z,6.77
2023-04-20T03:37:47.153Z,6.74
2023-04-20T03:42:48.804Z,6.71
2023-04-20T03:47:50.493Z,6.71
2023-04-20T03:52:52.137Z,6.74
2023-04-20T03:57:55.024Z,6.76
2023-04-20T04:02:57.729Z,6.78
2023-04-20T04:08:02.615Z,6.82
2023-04-20T04:13:04.990Z,6.90
2023-04-20T04:18:06.939Z,6.97
2023-04-20T04:23:10.530Z,7.04
2023-04-20T04:28:20.023Z,7.07
2023-04-20T04:33:34.704Z,7.12
2023-04-20T04:38:37.862Z,7.13
2023-04-20T04:43:41.552Z,7.22
2023-04-20T04:49:02.835Z,7.32
2023-04-20T04:54:04.846Z,7.36
2023-04-20T04:59:06.696Z,7.39
2023-04-20T05:04:08.614Z,7.45
2023-04-20T05:09:10.405Z,7.47
2023-04-20T05:14:12.053Z,7.57
2023-04-20T05:19:13.682Z,7.69
2023-04-20T05:24:15.662Z,7.72
2023-04-20T05:29:17.668Z,7.80
2023-04-20T05:34:19.543Z,7.91
2023-04-20T05:39:21.220Z,7.95
2023-04-20T05:44:22.828Z,8.01
2023-04-20T05:49:24.395Z,8.21
2023-04-20T05:54:28.265Z,8.33
2023-04-20T05:59:29.914Z,8.52
2023-04-20T06:04:32.097Z,8.77
2023-04-20T06:09:33.924Z,8.84
2023-04-20T06:14:35.560Z,8.93
2023-04-20T06:19:37.305Z,9.14
2023-04-20T06:24:38.947Z,9.31
2023-04-20T06:29:40.628Z,9.14
2023-04-20T06:34:42.231Z,8.80
2023-04-20T06:39:43.911Z,8.92
2023-04-20T06:44:45.827Z,8.98
2023-04-20T06:49:47.496Z,9.39
2023-04-20T06:54:49.118Z,9.69
2023-04-20T06:59:50.716Z,9.89
2023-04-20T07:04:52.505Z,10.24
2023-04-20T07:09:54.368Z,10.04
2023-04-20T07:14:56.230Z,10.03
2023-04-20T07:19:59.062Z,10.30
2023-04-20T07:25:05.264Z,10.77
2023-04-20T07:30:08.935Z,11.16
2023-04-20T07:35:11.316Z,11.40
2023-04-20T07:40:13.037Z,11.61
2023-04-20T07:45:14.809Z,11.82
2023-04-20T07:50:16.522Z,12.14
2023-04-20T07:55:18.459Z,12.58
2023-04-20T08:00:20.703Z,12.73
2023-04-20T08:05:22.534Z,12.84
2023-04-20T08:10:24.650Z,13.01
2023-04-20T08:15:26.322Z,13.20
2023-04-20T08:20:28.029Z,13.26
2023-04-20T08:25:29.814Z,13.72
2023-04-20T08:30:31.603Z,13.89
2023-04-20T08:35:33.423Z,13.84
2023-04-20T08:40:38.975Z,14.46
2023-04-20T08:45:44.206Z,14.53
2023-04-20T08:50:47.136Z,14.38
2023-04-20T08:55:49.873Z,14.69
2023-04-20T09:00:51.522Z,15.18
2023-04-20T09:05:53.168Z,15.48
2023-04-20T09:10:54.846Z,15.44
2023-04-20T09:15:56.575Z,15.06
2023-04-20T09:21:07.892Z,14.90
2023-04-20T09:26:18.688Z,14.60
2023-04-20T09:31:21.908Z,14.29
2023-04-20T09:36:24.320Z,15.24
2023-04-20T09:41:25.998Z,15.93
2023-04-20T09:46:32.505Z,16.36
2023-04-20T09:51:36.568Z,15.00
2023-04-20T09:56:38.637Z,15.60
2023-04-20T10:01:40.370Z,16.07
2023-04-20T10:06:55.829Z,16.09
2023-04-20T10:12:08.901Z,16.25
2023-04-20T10:17:11.471Z,16.77
2023-04-20T10:22:26.197Z,16.87
2023-04-20T10:27:28.344Z,16.04
2023-04-20T10:32:30.089Z,16.96
2023-04-20T10:37:32.343Z,16.68
2023-04-20T10:42:46.560Z,17.18
2023-04-20T10:47:48.239Z,17.26
2023-04-20T10:52:49.914Z,18.06
2023-04-20T10:57:52.305Z,18.38
2023-04-20T11:02:58.886Z,18.71
2023-04-20T11:08:01.377Z,18.21
2023-04-20T11:13:03.030Z,19.01
2023-04-20T11:18:09.191Z,18.99
2023-04-20T11:23:11.235Z,19.32
2023-04-20T11:28:12.828Z,18.80
2023-04-20T11:33:14.757Z,17.85
2023-04-20T11:38:27.630Z,18.38
2023-04-20T11:43:29.397Z,18.56
2023-04-20T11:48:31.545Z,18.68
2023-04-20T11:53:33.360Z,18.49
2023-04-20T11:58:35.509Z,18.77
2023-04-20T12:03:37.566Z,18.51
2023-04-20T12:08:39.477Z,18.64
2023-04-20T12:13:41.085Z,19.03
2023-04-20T12:18:42.981Z,18.95
2023-04-20T12:23:44.868Z,19.38
2023-04-20T12:28:46.488Z,19.27
2023-04-20T12:33:48.084Z,19.89
2023-04-20T12:38:52.928Z,20.74
2023-04-20T12:43:54.554Z,19.64
2023-04-20T12:48:56.297Z,19.93
2023-04-20T12:53:58.062Z,20.34
2023-04-20T12:58:59.860Z,20.75
2023-04-20T13:04:01.934Z,21.20
2023-04-20T13:09:04.436Z,19.71
2023-04-20T13:14:06.282Z,19.40
2023-04-20T13:19:08.230Z,20.11
2023-04-20T13:24:10.140Z,19.70
2023-04-20T13:29:11.870Z,19.24
2023-04-20T13:34:13.552Z,19.24
2023-04-20T13:39:15.960Z,18.86
2023-04-20T13:44:17.999Z,18.84
2023-04-20T13:49:22.656Z,18.94
2023-04-20T13:54:24.539Z,18.84
2023-04-20T13:59:26.156Z,19.22
2023-04-20T14:04:27.794Z,19.54
2023-04-20T14:09:31.297Z,19.22
2023-04-20T14:14:33.401Z,19.66
2023-04-20T14:19:35.104Z,19.24
2023-04-20T14:24:36.748Z,19.56
2023-04-20T14:29:38.367Z,19.88
2023-04-20T14:34:39.953Z,19.82
2023-04-20T14:39:41.567Z,20.06
2023-04-20T14:44:43.244Z,20.07
2023-04-20T14:49:44.860Z,20.02
2023-04-20T14:54:46.480Z,20.45
2023-04-20T14:59:48.137Z,20.43
2023-04-20T15:04:50.510Z,20.43
2023-04-20T15:09:52.295Z,20.22
2023-04-20T15:14:54.105Z,19.87
2023-04-20T15:19:55.764Z,19.45
2023-04-20T15:24:57.595Z,19.32
2023-04-20T15:29:59.248Z,19.69
2023-04-20T15:35:01.367Z,19.65
2023-04-20T15:40:04.013Z,19.56
2023-04-20T15:45:06.401Z,19.65
2023-04-20T15:50:08.567Z,19.38
2023-04-20T15:55:10.977Z,19.07
2023-04-20T16:00:13.676Z,18.99
2023-04-20T16:05:15.468Z,18.83
2023-04-20T16:10:17.182Z,18.77
2023-04-20T16:15:19.565Z,18.63
2023-04-20T16:20:21.255Z,18.46
2023-04-20T16:25:23.273Z,18.36
2023-04-20T16:30:25.147Z,18.05
2023-04-20T16:35:26.864Z,17.86
2023-04-20T16:40:28.580Z,17.85
2023-04-20T16:45:30.606Z,17.78
2023-04-20T16:50:32.489Z,17.62
2023-04-20T16:55:34.231Z,17.57
2023-04-20T17:00:37.006Z,17.59
2023-04-20T17:05:41.598Z,17.46
2023-04-20T17:10:43.855Z,17.23
2023-04-20T17:15:46.327Z,17.08
2023-04-20T17:20:48.578Z,16.94
2023-04-20T17:25:51.328Z,16.86
2023-04-20T17:30:52.964Z,16.76
2023-04-20T17:35:56.895Z,16.73
2023-04-20T17:40:58.502Z,16.43
2023-04-20T17:46:00.770Z,16.17
2023-04-20T17:51:02.580Z,16.07
2023-04-20T17:56:06.218Z,15.83
2023-04-20T18:01:07.829Z,15.63
2023-04-20T18:06:09.460Z,15.56
2023-04-20T18:11:11.457Z,15.42
2023-04-20T18:16:13.190Z,15.28
2023-04-20T18:21:15.356Z,15.21
2023-04-20T18:26:20.501Z,15.09
2023-04-20T18:31:22.199Z,14.99
2023-04-20T18:36:24.159Z,14.85
2023-04-20T18:41:27.470Z,14.73
2023-04-20T18:46:29.402Z,14.43
2023-04-20T18:51:32.078Z,14.37
2023-04-20T18:56:33.792Z,14.30
2023-04-20T19:01:40.297Z,14.24
2023-04-20T19:06:42.235Z,14.11
2023-04-20T19:11:43.940Z,13.98
2023-04-20T19:16:45.659Z,13.83
2023-04-20T19:21:48.348Z,13.69
2023-04-20T19:26:49.935Z,13.56
2023-04-20T19:31:52.014Z,13.29
2023-04-20T19:36:54.157Z,13.19
2023-04-20T19:41:55.808Z,13.09
2023-04-20T19:46:57.379Z,12.97
2023-04-20T19:51:59.065Z,12.82
2023-04-20T19:57:01.270Z,12.77
2023-04-20T20:02:03.587Z,12.66
2023-04-20T20:07:05.391Z,12.65
2023-04-20T20:12:08.542Z,12.53
2023-04-20T20:17:10.679Z,12.44
2023-04-20T20:22:12.263Z,12.35
2023-04-20T20:27:14.015Z,12.28
2023-04-20T20:32:15.875Z,12.20
2023-04-20T20:37:17.571Z,12.10
2023-04-20T20:42:19.270Z,11.99
2023-04-20T20:47:20.988Z,11.88
2023-04-20T20:52:23.010Z,11.72
2023-04-20T20:57:24.603Z,11.52
2023-04-20T21:02:26.448Z,11.45
2023-04-20T21:07:28.318Z,11.36
2023-04-20T21:12:30.296Z,11.36
2023-04-20T21:17:32.036Z,11.27
2023-04-20T21:22:33.875Z,11.12
2023-04-20T21:27:35.647Z,11.09
2023-04-20T21:32:37.279Z,10.99
2023-04-20T21:37:38.932Z,10.90
2023-04-20T21:42:40.552Z,10.84
2023-04-20T21:47:42.259Z,10.78
2023-04-20T21:52:43.937Z,10.63
2023-04-20T21:57:45.566Z,10.58
2023-04-20T22:02:47.948Z,10.55
2023-04-20T22:07:51.172Z,10.43
2023-04-20T22:12:53.017Z,10.42
2023-04-20T22:17:54.717Z,10.30
2023-04-20T22:22:57.374Z,10.28
2023-04-20T22:27:59.001Z,10.28
2023-04-20T22:33:00.676Z,10.17
2023-04-20T22:38:02.364Z,10.04
2023-04-20T22:43:04.271Z,9.88
2023-04-20T22:48:06.696Z,9.89
2023-04-20T22:53:08.331Z,9.85
2023-04-20T22:58:10.022Z,9.75
2023-04-20T23:03:11.794Z,9.73
2023-04-20T23:08:13.806Z,9.73
2023-04-20T23:13:18.242Z,9.72
2023-04-20T23:18:19.868Z,9.68
2023-04-20T23:23:21.464Z,9.50
2023-04-20T23:28:23.191Z,9.41
2023-04-20T23:33:24.941Z,9.38
2023-04-20T23:38:26.897Z,9.41
2023-04-20T23:43:28.553Z,9.32
2023-04-20T23:48:30.152Z,9.31
2023-04-20T23:53:35.852Z,9.33
2023-04-20T23:58:38.139Z,9.32
